Time;durP1;ratioP1;P1;durP2;ratioP2;P2;SDS_P1;SDS_P2;PMS_P1;PMS_P2;Temp;Humidity;BMP_temperature;BMP_pressure;BME280_temperature;BME280_humidity;BME280_pressure;Samples;Min_cycle;Max_cycle;Signal;HPM_P1;HPM_P2
2021/03/17 00:01:06;;;;;;;27.17;15.93;;;3.00;92.90;;;;;;4947250;28;20206;-83
2021/03/17 00:03:35;;;;;;;32.57;17.53;;;3.00;92.70;;;;;;4950903;28;20637;-83
2021/03/17 00:06:04;;;;;;;30.77;17.40;;;2.90;92.80;;;;;;4908529;28;20918;-84
2021/03/17 00:08:32;;;;;;;29.20;18.07;;;2.80;92.70;;;;;;4966934;28;20209;-84
2021/03/17 00:11:00;;;;;;;28.20;16.47;;;2.80;93.20;;;;;;4951157;28;20201;-85
2021/03/17 00:13:29;;;;;;;25.30;14.70;;;2.70;93.70;;;;;;4949033;28;20753;-84
2021/03/17 00:15:59;;;;;;;26.23;15.83;;;2.60;93.50;;;;;;4918247;28;20225;-83
2021/03/17 00:18:28;;;;;;;26.77;16.83;;;2.60;94.30;;;;;;4959295;28;20204;-84
2021/03/17 00:20:56;;;;;;;29.57;16.63;;;2.60;94.50;;;;;;4966052;28;20409;-82
2021/03/17 00:23:26;;;;;;;26.27;14.67;;;2.50;94.40;;;;;;4950032;28;20631;-83
2021/03/17 00:25:53;;;;;;;27.70;16.23;;;2.40;94.80;;;;;;4914604;28;20249;-85
2021/03/17 00:28:22;;;;;;;24.70;14.60;;;2.40;95.60;;;;;;4955695;28;20208;-82
2021/03/17 00:30:49;;;;;;;27.70;15.60;;;2.30;96.00;;;;;;4954840;28;20596;-82
2021/03/17 00:33:17;;;;;;;21.40;11.97;;;2.30;96.50;;;;;;4965700;28;20219;-82
2021/03/17 00:35:47;;;;;;;26.33;13.83;;;2.40;97.30;;;;;;4934848;28;20312;-82
2021/03/17 00:38:18;;;;;;;23.63;14.93;;;2.30;96.90;;;;;;4942958;28;20544;-83
2021/03/17 00:40:47;;;;;;;24.33;14.10;;;2.30;97.10;;;;;;4956438;28;20205;-82
2021/03/17 00:43:15;;;;;;;26.03;13.97;;;2.30;97.30;;;;;;4948786;28;20238;-82
2021/03/17 00:45:42;;;;;;;28.50;15.80;;;2.30;97.40;;;;;;4901782;28;20697;-83
2021/03/17 00:48:10;;;;;;;24.73;14.90;;;2.30;97.20;;;;;;4950074;28;20450;-83
2021/03/17 00:50:38;;;;;;;21.03;12.07;;;2.30;97.70;;;;;;4958225;28;20252;-83
2021/03/17 00:53:06;;;;;;;23.93;13.93;;;2.30;97.70;;;;;;4961474;28;20205;-83
2021/03/17 00:55:33;;;;;;;19.90;12.43;;;2.30;97.40;;;;;;4921811;28;20581;-82
2021/03/17 00:58:02;;;;;;;23.27;14.30;;;2.30;97.70;;;;;;4977764;28;20185;-83
2021/03/17 01:00:30;;;;;;;23.53;14.50;;;2.30;97.50;;;;;;4957256;28;20622;-82
2021/03/17 01:02:58;;;;;;;23.03;13.93;;;2.30;97.40;;;;;;4952718;28;20217;-82
2021/03/17 01:05:27;;;;;;;21.73;14.00;;;2.20;97.70;;;;;;4939329;28;20236;-82
2021/03/17 01:07:56;;;;;;;19.57;13.40;;;2.20;98.50;;;;;;4960684;28;20760;-81
2021/03/17 01:10:28;;;;;;;19.87;12.77;;;2.20;98.90;;;;;;4976537;28;20209;-83
2021/03/17 01:12:55;;;;;;;17.27;9.80;;;2.10;98.90;;;;;;4954543;28;20205;-84
2021/03/17 01:15:25;;;;;;;25.17;14.33;;;2.10;99.40;;;;;;4928052;28;21737;-83
2021/03/17 01:17:58;;;;;;;22.13;12.43;;;2.10;99.40;;;;;;4959277;28;20217;-83
2021/03/17 01:20:29;;;;;;;21.93;12.63;;;2.00;99.50;;;;;;4967886;28;20197;-83
2021/03/17 01:22:57;;;;;;;22.60;12.60;;;1.90;99.90;;;;;;4963482;28;20906;-84
2021/03/17 01:25:31;;;;;;;23.63;14.60;;;1.90;99.90;;;;;;4929663;28;20243;-84
2021/03/17 01:28:03;;;;;;;21.03;13.57;;;1.90;99.90;;;;;;4957745;28;20296;-84
2021/03/17 01:30:35;;;;;;;22.40;13.77;;;1.80;99.90;;;;;;4951936;28;20199;-82
2021/03/17 01:33:04;;;;;;;22.40;13.53;;;1.90;99.90;;;;;;4953832;28;20576;-84
2021/03/17 01:35:35;;;;;;;25.10;13.77;;;1.80;99.90;;;;;;4920670;28;20277;-83
2021/03/17 01:38:03;;;;;;;22.97;14.13;;;1.70;99.90;;;;;;4961406;28;20228;-82
2021/03/17 01:40:33;;;;;;;19.97;12.40;;;1.70;99.90;;;;;;4961820;28;20762;-83
2021/03/17 01:43:01;;;;;;;23.43;13.17;;;1.80;99.90;;;;;;4950757;28;20862;-84
2021/03/17 01:45:33;;;;;;;24.23;14.73;;;1.80;99.90;;;;;;4916587;28;20994;-85
2021/03/17 01:48:02;;;;;;;25.37;15.10;;;1.80;99.90;;;;;;4949406;28;20225;-82
2021/03/17 01:50:32;;;;;;;26.43;13.17;;;1.80;99.90;;;;;;4945843;28;20200;-83
2021/03/17 01:53:04;;;;;;;22.47;14.00;;;1.70;99.90;;;;;;4950878;28;20853;-82
2021/03/17 01:55:35;;;;;;;22.23;13.70;;;1.70;99.90;;;;;;4912816;28;20718;-83
2021/03/17 01:58:03;;;;;;;22.60;14.93;;;1.70;99.90;;;;;;4949986;28;20224;-82
2021/03/17 02:00:32;;;;;;;27.70;15.27;;;1.70;99.90;;;;;;4956646;28;20176;-82
2021/03/17 02:03:02;;;;;;;24.17;13.80;;;1.60;99.90;;;;;;4940961;28;20332;-82
2021/03/17 02:05:32;;;;;;;29.87;15.73;;;1.60;99.90;;;;;;4922503;28;20660;-83
2021/03/17 02:08:03;;;;;;;26.73;14.87;;;1.60;99.90;;;;;;4936381;28;20212;-81
2021/03/17 02:10:32;;;;;;;26.53;14.93;;;1.60;99.90;;;;;;4963707;28;20200;-79
2021/03/17 02:13:22;;;;;;;27.97;12.27;;;1.70;99.90;;;;;;4963081;28;20193;-83
2021/03/17 02:16:01;;;;;;;27.17;14.67;;;1.60;99.90;;;;;;4915077;28;20468;-81
2021/03/17 02:18:42;;;;;;;27.27;14.33;;;1.50;99.90;;;;;;4948295;28;20259;-84
2021/03/17 02:21:22;;;;;;;26.40;14.53;;;1.50;99.90;;;;;;4951785;28;20201;-84
2021/03/17 02:24:03;;;;;;;26.47;16.07;;;1.50;99.90;;;;;;4949975;28;20200;-82
2021/03/17 02:27:03;;;;;;;26.40;14.43;;;1.50;99.90;;;;;;4928077;28;20201;-82
2021/03/17 02:30:04;;;;;;;24.43;14.60;;;1.40;99.90;;;;;;4975094;28;20243;-82
2021/03/17 02:33:08;;;;;;;25.63;15.57;;;1.30;99.90;;;;;;4941302;28;20197;-82
2021/03/17 02:35:42;;;;;;;27.00;14.63;;;1.20;99.90;;;;;;4922221;28;20208;-81
2021/03/17 02:38:14;;;;;;;24.87;14.90;;;1.10;99.90;;;;;;4970642;28;20284;-83
2021/03/17 02:40:43;;;;;;;27.43;15.40;;;1.10;99.90;;;;;;4965507;28;20185;-81
2021/03/17 02:43:13;;;;;;;21.73;11.73;;;1.00;99.90;;;;;;4969270;28;20454;-81
2021/03/17 02:45:54;;;;;;;25.47;15.03;;;1.10;99.90;;;;;;4938314;28;20204;-82
2021/03/17 02:48:28;;;;;;;27.57;15.17;;;1.10;99.90;;;;;;4973856;28;20187;-83
2021/03/17 02:51:01;;;;;;;25.57;15.10;;;1.20;99.90;;;;;;4973759;28;20264;-83
2021/03/17 02:53:33;;;;;;;29.13;15.90;;;1.10;99.90;;;;;;4971188;28;20201;-82
2021/03/17 02:56:07;;;;;;;26.03;14.73;;;1.10;99.90;;;;;;4936051;28;20205;-83
2021/03/17 02:58:36;;;;;;;29.63;14.83;;;1.10;99.90;;;;;;4971826;28;20228;-82
2021/03/17 03:01:05;;;;;;;26.13;16.20;;;1.10;99.90;;;;;;4956749;28;20193;-83
2021/03/17 03:03:36;;;;;;;25.63;15.00;;;1.10;99.90;;;;;;4970117;28;20218;-82
2021/03/17 03:06:06;;;;;;;17.80;10.57;;;1.10;99.90;;;;;;4932790;28;20217;-83
2021/03/17 03:08:37;;;;;;;19.67;11.63;;;1.10;99.90;;;;;;4969830;28;20194;-83
2021/03/17 03:11:07;;;;;;;25.80;13.80;;;1.10;99.90;;;;;;4972236;28;20252;-83
2021/03/17 03:13:37;;;;;;;22.10;11.37;;;1.10;99.90;;;;;;4975627;28;20202;-83
2021/03/17 03:16:13;;;;;;;24.73;14.30;;;1.40;99.90;;;;;;4929453;28;20525;-83
2021/03/17 03:18:46;;;;;;;21.23;10.77;;;1.10;99.90;;;;;;4967527;28;20177;-81
2021/03/17 03:21:18;;;;;;;28.03;15.20;;;1.10;99.90;;;;;;4959325;28;20201;-82
2021/03/17 03:23:48;;;;;;;24.40;13.37;;;1.10;99.90;;;;;;4957475;28;20492;-82
2021/03/17 03:26:17;;;;;;;26.30;15.33;;;1.10;99.90;;;;;;4918516;28;20223;-82
2021/03/17 03:28:48;;;;;;;30.63;16.83;;;1.20;99.90;;;;;;4945299;28;20380;-83
2021/03/17 03:31:18;;;;;;;25.43;15.53;;;1.10;99.90;;;;;;4952717;28;20231;-83
2021/03/17 03:33:47;;;;;;;27.50;16.30;;;1.20;99.90;;;;;;4933561;28;20216;-83
2021/03/17 03:36:16;;;;;;;30.60;17.43;;;1.20;99.90;;;;;;4915648;28;20221;-82
2021/03/17 03:38:43;;;;;;;30.43;18.17;;;1.20;99.90;;;;;;4947493;28;20198;-81
2021/03/17 03:41:12;;;;;;;34.80;19.67;;;1.20;99.90;;;;;;4966683;28;20673;-84
2021/03/17 03:43:39;;;;;;;34.70;19.87;;;1.10;99.90;;;;;;4952748;28;20204;-82
2021/03/17 03:46:07;;;;;;;38.07;19.80;;;1.10;99.90;;;;;;4905598;28;20318;-83
2021/03/17 03:48:36;;;;;;;39.87;20.60;;;1.00;99.90;;;;;;4946158;28;20201;-83
2021/03/17 03:51:04;;;;;;;38.00;20.83;;;1.10;99.90;;;;;;4945079;28;20205;-82
2021/03/17 03:53:42;;;;;;;42.20;23.63;;;1.10;99.90;;;;;;4946848;28;20572;-83
2021/03/17 03:56:14;;;;;;;44.90;21.93;;;1.10;99.90;;;;;;4910943;28;20231;-83
2021/03/17 03:58:47;;;;;;;36.27;19.87;;;1.10;99.90;;;;;;4957260;28;20208;-82
2021/03/17 04:01:22;;;;;;;28.13;17.17;;;1.10;99.90;;;;;;4967649;28;20526;-82
2021/03/17 04:04:03;;;;;;;27.50;14.87;;;1.00;99.90;;;;;;4967625;28;20296;-85
2021/03/17 04:06:33;;;;;;;27.40;16.37;;;0.90;99.90;;;;;;4926916;28;20225;-82
2021/03/17 04:09:05;;;;;;;27.77;15.83;;;0.80;99.90;;;;;;4956737;28;20201;-83
2021/03/17 04:11:33;;;;;;;30.37;16.63;;;0.80;99.90;;;;;;4952577;28;20201;-82
2021/03/17 04:14:05;;;;;;;26.93;12.90;;;0.70;99.90;;;;;;4946112;28;20211;-83
2021/03/17 04:16:41;;;;;;;28.43;15.47;;;0.70;99.90;;;;;;4898958;28;20732;-82
2021/03/17 04:19:10;;;;;;;16.87;9.53;;;0.70;99.90;;;;;;4954197;28;20209;-82
2021/03/17 04:21:41;;;;;;;28.87;15.90;;;0.70;99.90;;;;;;4948256;28;20259;-83
2021/03/17 04:24:11;;;;;;;29.17;16.53;;;0.70;99.90;;;;;;4957531;28;20212;-83
2021/03/17 04:26:43;;;;;;;26.53;15.13;;;0.70;99.90;;;;;;4923877;28;20226;-84
2021/03/17 04:29:13;;;;;;;19.63;11.20;;;0.80;99.90;;;;;;4959062;28;20206;-83
2021/03/17 04:31:42;;;;;;;14.60;10.40;;;0.80;99.90;;;;;;4973054;28;20206;-83
2021/03/17 04:34:18;;;;;;;21.57;12.30;;;0.80;99.90;;;;;;4956129;28;20213;-82
2021/03/17 04:36:46;;;;;;;17.83;11.30;;;0.80;99.90;;;;;;4950000;28;20231;-82
2021/03/17 04:39:16;;;;;;;18.73;11.93;;;0.70;99.90;;;;;;4959614;28;20213;-83
2021/03/17 04:41:46;;;;;;;15.30;8.27;;;0.70;99.90;;;;;;4953122;28;20201;-84
2021/03/17 04:44:20;;;;;;;19.63;11.33;;;0.70;99.90;;;;;;4947135;28;20197;-82
2021/03/17 04:46:49;;;;;;;18.20;11.07;;;0.70;99.90;;;;;;4912096;28;20247;-82
2021/03/17 04:49:20;;;;;;;11.00;7.37;;;0.70;99.90;;;;;;4949009;28;20279;-82
2021/03/17 04:51:49;;;;;;;13.33;7.70;;;0.80;99.90;;;;;;4968902;28;20618;-82
2021/03/17 04:54:19;;;;;;;18.87;10.40;;;0.70;99.90;;;;;;4930618;28;20240;-84
2021/03/17 04:56:48;;;;;;;16.97;10.57;;;0.70;99.90;;;;;;4923701;28;20358;-84
2021/03/17 04:59:19;;;;;;;14.67;8.40;;;0.80;99.90;;;;;;4947990;28;20569;-82
2021/03/17 05:01:48;;;;;;;20.90;11.80;;;0.80;99.90;;;;;;4956642;28;20201;-84
2021/03/17 05:04:18;;;;;;;20.13;12.27;;;0.80;99.90;;;;;;4937064;28;20220;-80
2021/03/17 05:06:48;;;;;;;21.43;12.50;;;0.80;99.90;;;;;;4931577;28;20745;-82
2021/03/17 05:09:22;;;;;;;20.90;12.47;;;0.90;99.90;;;;;;4950874;28;20205;-83
2021/03/17 05:11:50;;;;;;;18.83;11.53;;;0.90;99.90;;;;;;4951525;28;20499;-83
2021/03/17 05:14:20;;;;;;;19.43;10.87;;;0.90;99.90;;;;;;4936143;28;20507;-84
2021/03/17 05:16:50;;;;;;;18.77;11.70;;;1.00;99.90;;;;;;4917036;28;20233;-84
2021/03/17 05:19:19;;;;;;;19.40;12.17;;;1.00;99.90;;;;;;4950598;28;20690;-83
2021/03/17 05:21:50;;;;;;;18.80;11.00;;;1.10;99.90;;;;;;4956078;28;20262;-82
2021/03/17 05:24:25;;;;;;;17.73;8.90;;;1.00;99.90;;;;;;4941409;28;20594;-82
2021/03/17 05:26:56;;;;;;;17.83;11.40;;;1.00;99.90;;;;;;4950748;28;20268;-83
2021/03/17 05:29:26;;;;;;;19.00;12.10;;;1.00;99.90;;;;;;4962082;28;20209;-81
2021/03/17 05:31:56;;;;;;;18.60;11.73;;;0.90;99.90;;;;;;4954816;28;20305;-82
2021/03/17 05:34:27;;;;;;;14.20;9.50;;;1.10;99.90;;;;;;4919396;28;20643;-83
2021/03/17 05:37:02;;;;;;;17.90;10.20;;;1.10;99.90;;;;;;4935609;28;20426;-81
2021/03/17 05:39:34;;;;;;;16.27;9.43;;;1.30;99.90;;;;;;4922613;28;20221;-82
2021/03/17 05:42:12;;;;;;;8.77;5.90;;;1.10;99.90;;;;;;4957823;28;20247;-83
2021/03/17 05:44:42;;;;;;;19.67;10.40;;;1.10;99.90;;;;;;4938361;28;20229;-81
2021/03/17 05:47:11;;;;;;;10.87;7.30;;;1.10;99.90;;;;;;4921171;28;20222;-83
2021/03/17 05:49:41;;;;;;;15.70;10.13;;;1.20;99.90;;;;;;4972692;28;20192;-82
2021/03/17 05:52:09;;;;;;;17.03;9.43;;;1.30;99.90;;;;;;4975058;28;20181;-83
2021/03/17 05:54:42;;;;;;;15.87;8.97;;;1.30;99.90;;;;;;4957050;28;20225;-83
2021/03/17 05:57:11;;;;;;;15.07;9.27;;;1.30;99.90;;;;;;4943955;28;20292;-81
2021/03/17 05:59:42;;;;;;;13.57;9.07;;;1.30;99.90;;;;;;4964566;28;20298;-83
2021/03/17 06:02:11;;;;;;;13.90;9.13;;;1.30;99.90;;;;;;4972563;28;20224;-82
2021/03/17 06:04:42;;;;;;;16.53;9.90;;;1.40;99.90;;;;;;4956988;28;20221;-83
2021/03/17 06:07:18;;;;;;;9.90;6.20;;;1.40;99.90;;;;;;4957519;28;20276;-83
2021/03/17 06:09:49;;;;;;;16.03;9.80;;;1.60;99.90;;;;;;4970932;28;20217;-84
2021/03/17 06:12:18;;;;;;;15.77;9.20;;;1.40;99.90;;;;;;4961906;28;20208;-84
2021/03/17 06:14:52;;;;;;;13.73;8.17;;;1.50;99.90;;;;;;4958181;28;20221;-85
2021/03/17 06:17:28;;;;;;;14.30;8.93;;;1.50;99.90;;;;;;4965568;28;20226;-84
2021/03/17 06:20:00;;;;;;;16.70;10.17;;;1.50;99.90;;;;;;4973364;28;20213;-82
2021/03/17 06:22:31;;;;;;;15.03;9.57;;;1.50;99.90;;;;;;4973317;28;20207;-82
2021/03/17 06:25:08;;;;;;;8.33;5.73;;;1.50;99.90;;;;;;4951600;28;20235;-82
2021/03/17 06:27:38;;;;;;;14.37;9.07;;;1.60;99.90;;;;;;4966210;28;20238;-84
2021/03/17 06:30:08;;;;;;;14.37;8.43;;;1.60;99.90;;;;;;4974159;28;20216;-83
2021/03/17 06:32:43;;;;;;;12.60;7.90;;;1.70;99.90;;;;;;4972472;28;20221;-82
2021/03/17 06:35:16;;;;;;;15.53;8.73;;;1.80;99.90;;;;;;4926638;28;20231;-84
2021/03/17 06:37:50;;;;;;;13.73;9.57;;;1.80;99.90;;;;;;4946649;28;20244;-83
2021/03/17 06:40:30;;;;;;;16.53;9.47;;;1.80;99.90;;;;;;4945694;28;20220;-81
2021/03/17 06:43:06;;;;;;;14.77;9.03;;;1.80;99.90;;;;;;4968172;28;20499;-79
2021/03/17 06:45:39;;;;;;;12.23;8.77;;;1.80;99.90;;;;;;4949689;28;20229;-82
2021/03/17 06:48:24;;;;;;;18.03;9.37;;;1.80;99.90;;;;;;4966443;28;20234;-82
2021/03/17 06:51:08;;;;;;;14.67;8.80;;;1.90;99.90;;;;;;4973946;28;20221;-86
2021/03/17 06:53:42;;;;;;;15.07;9.53;;;2.00;99.90;;;;;;4967895;28;20207;-84
2021/03/17 06:56:19;;;;;;;15.13;8.83;;;2.00;99.90;;;;;;4931439;28;20257;-83
2021/03/17 06:58:52;;;;;;;15.73;9.73;;;1.90;99.90;;;;;;4970784;28;20225;-82
2021/03/17 07:01:33;;;;;;;13.33;7.23;;;2.00;99.90;;;;;;4962859;28;20216;-83
2021/03/17 07:04:04;;;;;;;17.03;9.23;;;2.00;99.90;;;;;;4959973;28;20205;-83
2021/03/17 07:06:34;;;;;;;15.47;9.83;;;2.10;99.90;;;;;;4888125;28;20466;-82
2021/03/17 07:09:17;;;;;;;15.40;7.67;;;2.20;99.90;;;;;;4961806;28;20202;-83
2021/03/17 07:11:51;;;;;;;15.60;9.63;;;2.20;99.20;;;;;;4959228;28;20193;-85
2021/03/17 07:14:26;;;;;;;17.73;10.83;;;2.30;99.20;;;;;;4947958;28;20274;-86
2021/03/17 07:16:54;;;;;;;19.83;10.70;;;2.20;98.60;;;;;;4914821;28;20219;-83
2021/03/17 07:19:33;;;;;;;18.13;10.20;;;2.30;98.60;;;;;;4962648;28;20230;-82
2021/03/17 07:22:18;;;;;;;16.73;10.70;;;2.50;97.20;;;;;;4962347;28;20214;-82
2021/03/17 07:24:48;;;;;;;16.77;10.53;;;2.50;96.70;;;;;;4943632;28;20222;-83
2021/03/17 07:27:24;;;;;;;16.17;10.13;;;2.50;96.60;;;;;;4972652;28;20919;-82
2021/03/17 07:30:10;;;;;;;16.90;9.57;;;2.50;96.60;;;;;;4965858;28;20192;-82
2021/03/17 07:32:57;;;;;;;16.93;9.27;;;2.40;96.80;;;;;;4922328;28;20260;-82
2021/03/17 07:35:30;;;;;;;15.17;9.53;;;2.50;96.80;;;;;;4942195;28;20211;-83
2021/03/17 07:38:06;;;;;;;14.07;9.10;;;2.50;97.00;;;;;;4930031;28;20320;-83
2021/03/17 07:40:36;;;;;;;12.77;8.40;;;2.40;97.60;;;;;;4953938;28;20695;-84
2021/03/17 07:43:11;;;;;;;14.00;8.60;;;2.50;97.70;;;;;;4940557;28;20269;-85
2021/03/17 07:45:40;;;;;;;15.80;9.10;;;2.50;98.30;;;;;;4934762;28;20218;-82
2021/03/17 07:48:10;;;;;;;12.10;7.07;;;2.60;98.30;;;;;;4943140;28;20465;-82
2021/03/17 07:50:42;;;;;;;14.13;7.80;;;2.60;98.80;;;;;;4953676;28;20262;-84
2021/03/17 07:53:16;;;;;;;14.43;8.50;;;2.60;97.80;;;;;;4933720;28;20224;-85
2021/03/17 07:55:46;;;;;;;14.17;8.33;;;2.50;98.90;;;;;;4943203;28;20236;-82
2021/03/17 07:58:16;;;;;;;11.43;6.07;;;2.60;99.90;;;;;;4936756;28;20749;-82
2021/03/17 08:00:45;;;;;;;13.53;8.00;;;2.40;99.10;;;;;;4932939;28;20212;-83
2021/03/17 08:03:14;;;;;;;14.10;8.77;;;2.60;98.90;;;;;;4959793;28;20306;-83
2021/03/17 08:05:43;;;;;;;6.63;4.73;;;2.60;99.10;;;;;;4928067;28;20584;-83
2021/03/17 08:08:14;;;;;;;13.87;8.40;;;2.70;99.20;;;;;;4924281;28;20279;-84
2021/03/17 08:10:45;;;;;;;11.50;7.30;;;2.70;98.10;;;;;;4941216;28;20537;-82
2021/03/17 08:13:27;;;;;;;10.90;7.80;;;2.80;98.60;;;;;;4894089;28;20253;-86
2021/03/17 08:15:55;;;;;;;12.43;7.50;;;2.80;98.00;;;;;;4932943;28;20233;-82
2021/03/17 08:18:43;;;;;;;13.33;8.20;;;3.00;97.30;;;;;;4938983;28;20494;-85
2021/03/17 08:21:12;;;;;;;12.70;7.13;;;3.10;96.40;;;;;;4947005;28;20234;-83
2021/03/17 08:23:43;;;;;;;11.93;7.47;;;3.30;95.30;;;;;;4955261;28;20207;-83
2021/03/17 08:26:13;;;;;;;11.50;7.40;;;3.20;94.20;;;;;;4956133;28;20855;-85
2021/03/17 08:28:52;;;;;;;10.37;7.23;;;3.20;94.90;;;;;;4945583;28;20207;-85
2021/03/17 08:31:50;;;;;;;16.30;7.83;;;3.20;95.00;;;;;;4933757;28;20211;-83
2021/03/17 08:34:24;;;;;;;11.57;7.47;;;3.40;94.10;;;;;;4939002;28;20246;-81
2021/03/17 08:36:53;;;;;;;12.30;7.73;;;3.30;93.90;;;;;;4930893;28;20393;-82
2021/03/17 08:39:44;;;;;;;14.23;8.30;;;3.40;94.40;;;;;;4938794;28;20229;-84
2021/03/17 08:42:25;;;;;;;17.67;11.00;;;3.50;93.60;;;;;;4944178;28;20196;-83
2021/03/17 08:44:56;;;;;;;19.10;11.67;;;3.50;93.00;;;;;;4945593;28;20678;-83
2021/03/17 08:47:28;;;;;;;17.83;11.60;;;3.70;93.80;;;;;;4924734;28;20264;-82
2021/03/17 08:50:15;;;;;;;19.90;12.63;;;4.00;92.60;;;;;;4951249;28;20220;-84
2021/03/17 08:52:48;;;;;;;20.70;11.40;;;4.30;92.20;;;;;;4944860;28;20500;-82
2021/03/17 08:55:18;;;;;;;18.07;11.03;;;4.30;90.50;;;;;;4949538;28;20675;-84
2021/03/17 08:58:05;;;;;;;18.23;12.57;;;4.30;90.30;;;;;;4915840;28;20694;-84
2021/03/17 09:00:56;;;;;;;17.40;11.13;;;4.60;91.10;;;;;;4924249;28;20224;-85
2021/03/17 09:03:45;;;;;;;11.57;8.30;;;4.80;89.60;;;;;;4932612;28;20237;-84
2021/03/17 09:06:16;;;;;;;13.43;9.20;;;4.70;88.90;;;;;;4910787;28;20303;-83
2021/03/17 09:08:53;;;;;;;17.07;10.57;;;4.70;88.70;;;;;;4917816;28;20234;-80
2021/03/17 09:12:00;;;;;;;23.67;14.60;;;4.60;88.60;;;;;;4936764;28;20320;-82
2021/03/17 09:14:38;;;;;;;25.03;15.20;;;4.70;89.80;;;;;;4933730;28;20213;-86
2021/03/17 09:17:28;;;;;;;16.73;9.13;;;4.70;88.40;;;;;;4926238;28;20234;-85
2021/03/17 09:20:06;;;;;;;23.67;15.13;;;4.60;88.80;;;;;;4939999;28;20204;-84
2021/03/17 09:22:37;;;;;;;22.63;15.47;;;4.50;89.30;;;;;;4932961;28;20737;-84
2021/03/17 09:25:18;;;;;;;21.00;12.50;;;4.40;89.90;;;;;;4935059;28;20222;-83
2021/03/17 09:27:51;;;;;;;21.27;13.57;;;4.50;90.10;;;;;;4925410;28;20759;-85
2021/03/17 09:30:21;;;;;;;21.73;14.20;;;4.50;90.30;;;;;;4947558;28;20196;-82
2021/03/17 09:32:58;;;;;;;19.57;11.57;;;4.50;90.50;;;;;;4932131;28;20217;-81
2021/03/17 09:35:27;;;;;;;12.43;8.70;;;4.60;90.20;;;;;;4941977;28;20203;-82
2021/03/17 09:38:11;;;;;;;12.27;9.37;;;4.70;88.90;;;;;;4920172;28;20451;-83
2021/03/17 09:40:48;;;;;;;12.53;8.77;;;4.80;89.40;;;;;;4960715;28;20290;-81
2021/03/17 09:43:40;;;;;;;12.03;7.97;;;4.70;90.00;;;;;;4965348;28;20472;-85
2021/03/17 09:46:32;;;;;;;10.80;7.53;;;4.60;90.10;;;;;;4933024;28;20255;-82
2021/03/17 09:49:05;;;;;;;10.63;5.70;;;4.50;90.10;;;;;;4933432;28;20210;-82
2021/03/17 09:51:35;;;;;;;8.17;5.80;;;4.50;89.90;;;;;;4908099;28;20211;-84
2021/03/17 09:54:10;;;;;;;11.03;6.70;;;4.30;89.70;;;;;;4907658;28;20237;-84
2021/03/17 09:56:42;;;;;;;12.03;5.93;;;4.50;90.50;;;;;;4913435;28;20257;-85
2021/03/17 09:59:21;;;;;;;13.03;6.83;;;4.50;89.80;;;;;;4884276;28;20320;-84
2021/03/17 10:01:55;;;;;;;9.03;5.57;;;4.60;90.00;;;;;;4943881;28;20200;-85
2021/03/17 10:04:31;;;;;;;10.87;6.40;;;4.60;89.20;;;;;;4929819;28;20478;-82
2021/03/17 10:07:04;;;;;;;8.97;6.27;;;4.60;88.70;;;;;;4942031;28;20225;-84
2021/03/17 10:09:34;;;;;;;12.20;7.13;;;4.70;89.00;;;;;;4945149;28;20621;-81
2021/03/17 10:12:05;;;;;;;10.20;6.00;;;4.60;89.50;;;;;;4936989;28;20228;-82
2021/03/17 10:14:38;;;;;;;10.43;6.57;;;4.50;89.00;;;;;;4909791;28;20240;-84
2021/03/17 10:17:08;;;;;;;8.97;6.70;;;4.50;89.80;;;;;;4951672;28;20273;-84
2021/03/17 10:19:42;;;;;;;10.20;6.33;;;4.40;89.60;;;;;;4934830;28;20245;-85
2021/03/17 10:22:24;;;;;;;11.00;6.40;;;4.30;90.40;;;;;;4950676;28;20201;-86
2021/03/17 10:24:56;;;;;;;12.97;7.00;;;4.20;90.30;;;;;;4942316;28;20208;-83
2021/03/17 10:27:31;;;;;;;9.00;6.07;;;4.10;90.60;;;;;;4939948;28;20247;-83
2021/03/17 10:30:06;;;;;;;13.20;7.00;;;4.20;90.00;;;;;;4934051;28;20673;-86
2021/03/17 10:32:37;;;;;;;10.37;6.77;;;4.20;90.30;;;;;;4932807;28;20257;-82
2021/03/17 10:35:11;;;;;;;10.57;6.13;;;4.30;90.00;;;;;;4930870;28;20224;-84
2021/03/17 10:37:41;;;;;;;10.13;6.77;;;4.30;89.50;;;;;;4951372;28;20667;-85
2021/03/17 10:40:13;;;;;;;9.17;6.40;;;4.40;89.50;;;;;;4948559;28;20227;-85
2021/03/17 10:42:47;;;;;;;9.23;6.53;;;4.60;89.20;;;;;;4939789;28;20492;-84
2021/03/17 10:45:22;;;;;;;9.93;6.73;;;4.90;89.00;;;;;;4950157;28;20217;-83
2021/03/17 10:47:54;;;;;;;10.87;7.00;;;4.70;88.90;;;;;;4937509;28;20225;-82
2021/03/17 10:50:32;;;;;;;12.00;7.43;;;4.70;89.20;;;;;;4943113;28;20292;-83
2021/03/17 10:53:02;;;;;;;10.27;6.60;;;4.70;89.20;;;;;;4945153;28;20262;-90
2021/03/17 10:55:45;;;;;;;11.77;6.43;;;4.80;89.20;;;;;;4908326;28;20217;-84
2021/03/17 10:58:27;;;;;;;8.70;6.10;;;4.80;88.30;;;;;;4945358;28;20290;-86
2021/03/17 11:00:56;;;;;;;8.57;5.67;;;4.90;87.40;;;;;;4953562;28;20397;-84
2021/03/17 11:03:27;;;;;;;9.60;5.97;;;4.70;86.80;;;;;;4907152;28;20851;-85
2021/03/17 11:06:13;;;;;;;9.13;6.20;;;4.50;87.40;;;;;;4896812;28;20767;-84
2021/03/17 11:08:46;;;;;;;10.17;6.97;;;4.50;88.50;;;;;;4947008;28;20225;-83
2021/03/17 11:11:18;;;;;;;10.77;5.97;;;4.70;89.40;;;;;;4946313;28;20201;-85
2021/03/17 11:13:49;;;;;;;9.37;6.73;;;4.40;88.70;;;;;;4953461;28;20205;-87
2021/03/17 11:16:29;;;;;;;9.97;6.97;;;4.50;89.50;;;;;;4952015;28;20205;-84
2021/03/17 11:19:00;;;;;;;8.30;5.70;;;4.70;88.60;;;;;;4961271;28;20263;-84
2021/03/17 11:21:36;;;;;;;8.60;5.87;;;4.70;87.50;;;;;;4945964;28;20229;-84
2021/03/17 11:24:06;;;;;;;11.73;7.33;;;4.80;87.00;;;;;;4951370;28;20200;-84
2021/03/17 11:26:49;;;;;;;8.93;6.27;;;4.80;87.50;;;;;;4964758;28;20225;-84
2021/03/17 11:29:24;;;;;;;12.67;7.10;;;4.80;87.70;;;;;;4941207;28;20221;-84
2021/03/17 11:31:57;;;;;;;11.33;8.60;;;4.90;87.50;;;;;;4963638;28;20197;-84
2021/03/17 11:34:24;;;;;;;10.90;7.63;;;4.90;87.70;;;;;;4951797;28;20398;-85
2021/03/17 11:36:56;;;;;;;11.27;6.73;;;4.90;88.20;;;;;;4947021;28;20272;-84
2021/03/17 11:39:24;;;;;;;11.67;7.00;;;5.00;87.90;;;;;;4951433;28;20518;-83
2021/03/17 11:41:52;;;;;;;10.00;6.73;;;5.10;87.60;;;;;;4954786;28;20421;-82
2021/03/17 11:44:22;;;;;;;10.60;6.57;;;5.10;87.20;;;;;;4948659;28;20209;-82
2021/03/17 11:46:50;;;;;;;10.97;6.70;;;5.00;87.10;;;;;;4955246;28;20532;-83
2021/03/17 11:49:19;;;;;;;11.23;6.73;;;4.90;86.70;;;;;;4883150;28;20236;-83
2021/03/17 11:51:49;;;;;;;13.47;8.10;;;4.80;87.00;;;;;;4959122;28;20208;-85
2021/03/17 11:54:18;;;;;;;12.87;9.10;;;4.70;87.40;;;;;;4957156;28;20201;-84
2021/03/17 11:56:50;;;;;;;11.87;8.37;;;4.80;88.10;;;;;;4952038;28;20782;-85
2021/03/17 11:59:20;;;;;;;9.93;7.17;;;4.80;87.40;;;;;;4912270;28;20288;-86
2021/03/17 12:01:54;;;;;;;10.60;7.07;;;4.70;88.00;;;;;;4951812;28;20243;-83
2021/03/17 12:04:23;;;;;;;12.90;6.93;;;4.80;88.40;;;;;;4953002;28;20210;-84
2021/03/17 12:06:52;;;;;;;8.20;5.57;;;4.80;88.30;;;;;;4945745;28;20305;-84
2021/03/17 12:09:21;;;;;;;9.97;5.37;;;5.00;87.50;;;;;;4930021;28;20220;-81
2021/03/17 12:11:51;;;;;;;8.87;5.60;;;5.10;87.10;;;;;;4944899;28;20209;-81
2021/03/17 12:14:19;;;;;;;8.83;4.73;;;5.30;87.30;;;;;;4945185;28;20201;-82
2021/03/17 12:16:54;;;;;;;8.67;5.47;;;5.40;86.40;;;;;;4926778;28;20225;-82
2021/03/17 12:19:24;;;;;;;7.77;5.30;;;5.30;86.40;;;;;;4947047;28;20710;-83
2021/03/17 12:21:54;;;;;;;6.77;5.57;;;5.20;86.20;;;;;;4944794;28;20210;-84
2021/03/17 12:24:43;;;;;;;10.07;5.13;;;5.30;86.90;;;;;;4935473;28;20285;-82
2021/03/17 12:27:12;;;;;;;7.40;5.20;;;5.50;86.20;;;;;;4944831;28;20202;-83
2021/03/17 12:29:41;;;;;;;5.80;4.50;;;5.60;86.20;;;;;;4940723;28;20221;-83
2021/03/17 12:32:13;;;;;;;8.53;5.67;;;5.60;85.50;;;;;;4944902;28;20893;-81
2021/03/17 12:34:43;;;;;;;7.87;5.40;;;5.60;85.90;;;;;;4924678;28;20216;-84
2021/03/17 12:37:14;;;;;;;7.10;5.30;;;5.40;85.70;;;;;;4928608;28;20547;-83
2021/03/17 12:39:43;;;;;;;7.37;5.57;;;5.30;86.40;;;;;;4963448;28;20318;-83
2021/03/17 12:42:13;;;;;;;6.77;5.60;;;5.20;86.10;;;;;;4960012;28;20205;-82
2021/03/17 12:44:44;;;;;;;8.03;5.77;;;5.30;86.10;;;;;;4943458;28;20576;-85
2021/03/17 12:47:12;;;;;;;7.03;4.67;;;5.10;86.10;;;;;;4948836;28;20220;-82
2021/03/17 12:49:45;;;;;;;8.90;5.50;;;5.10;86.40;;;;;;4931956;28;20624;-85
2021/03/17 12:52:15;;;;;;;6.67;5.10;;;5.10;86.40;;;;;;4907312;28;20283;-81
2021/03/17 12:54:44;;;;;;;8.90;5.03;;;5.10;86.50;;;;;;4892913;28;20703;-83
2021/03/17 12:57:12;;;;;;;7.80;5.23;;;5.00;86.70;;;;;;4921778;28;20216;-83
2021/03/17 12:59:41;;;;;;;6.57;5.03;;;5.00;86.80;;;;;;4921279;28;20228;-84
2021/03/17 13:02:12;;;;;;;8.60;5.53;;;5.10;86.90;;;;;;4881666;28;20328;-83
2021/03/17 13:04:40;;;;;;;5.77;4.43;;;5.10;86.70;;;;;;4914868;28;20219;-85
2021/03/17 13:07:13;;;;;;;6.33;4.77;;;5.10;86.30;;;;;;4925941;28;20246;-83
2021/03/17 13:09:42;;;;;;;6.43;4.43;;;5.10;86.50;;;;;;4915015;28;20339;-82
2021/03/17 13:12:14;;;;;;;6.37;4.97;;;5.10;86.40;;;;;;4922918;28;20522;-85